sensor_id;sensor_type;location;lat;lon;timestamp;P1;durP1;ratioP1;P2;durP2;ratioP2
4595;SDS011;2310;49.978;8.742;2024-02-26T00:03:02;5.10;;;2.20;;
4595;SDS011;2310;49.978;8.742;2024-02-26T00:07:03;4.90;;;2.90;;
4595;SDS011;2310;49.978;8.742;2024-02-26T00:11:05;5.20;;;2.30;;
4595;SDS011;2310;49.978;8.742;2024-02-26T00:15:07;4.83;;;2.20;;
4595;SDS011;2310;49.978;8.742;2024-02-26T00:19:09;4.60;;;2.07;;
4595;SDS011;2310;49.978;8.742;2024-02-26T00:23:11;3.90;;;1.73;;
4595;SDS011;2310;49.978;8.742;2024-02-26T00:27:17;4.20;;;2.20;;
4595;SDS011;2310;49.978;8.742;2024-02-26T00:31:19;4.97;;;2.53;;
4595;SDS011;2310;49.978;8.742;2024-02-26T00:35:20;3.90;;;1.90;;
4595;SDS011;2310;49.978;8.742;2024-02-26T00:39:21;4.63;;;2.33;;
4595;SDS011;2310;49.978;8.742;2024-02-26T00:43:23;3.73;;;1.80;;
4595;SDS011;2310;49.978;8.742;2024-02-26T00:47:24;5.43;;;3.13;;
4595;SDS011;2310;49.978;8.742;2024-02-26T00:51:26;4.53;;;2.20;;
4595;SDS011;2310;49.978;8.742;2024-02-26T00:55:27;5.20;;;2.80;;
4595;SDS011;2310;49.978;8.742;2024-02-26T00:59:29;4.67;;;2.30;;
4595;SDS011;2310;49.978;8.742;2024-02-26T01:03:30;5.17;;;1.90;;
4595;SDS011;2310;49.978;8.742;2024-02-26T01:07:32;4.73;;;2.10;;
4595;SDS011;2310;49.978;8.742;2024-02-26T01:11:35;6.93;;;2.30;;
4595;SDS011;2310;49.978;8.742;2024-02-26T01:15:37;4.40;;;2.17;;
4595;SDS011;2310;49.978;8.742;2024-02-26T01:19:38;4.67;;;3.30;;
4595;SDS011;2310;49.978;8.742;2024-02-26T01:23:39;5.00;;;2.50;;
4595;SDS011;2310;49.978;8.742;2024-02-26T01:27:41;5.03;;;2.10;;
4595;SDS011;2310;49.978;8.742;2024-02-26T01:31:43;4.53;;;2.50;;
4595;SDS011;2310;49.978;8.742;2024-02-26T01:35:45;6.57;;;2.80;;
4595;SDS011;2310;49.978;8.742;2024-02-26T01:39:47;5.50;;;3.13;;
4595;SDS011;2310;49.978;8.742;2024-02-26T01:43:48;4.80;;;2.63;;
4595;SDS011;2310;49.978;8.742;2024-02-26T01:47:50;5.10;;;2.40;;
4595;SDS011;2310;49.978;8.742;2024-02-26T01:51:53;5.57;;;2.67;;
4595;SDS011;2310;49.978;8.742;2024-02-26T01:55:54;4.80;;;2.90;;
4595;SDS011;2310;49.978;8.742;2024-02-26T01:59:55;5.37;;;3.20;;
4595;SDS011;2310;49.978;8.742;2024-02-26T02:03:58;5.80;;;2.53;;
4595;SDS011;2310;49.978;8.742;2024-02-26T02:08:00;4.23;;;2.37;;
4595;SDS011;2310;49.978;8.742;2024-02-26T02:12:04;9.87;;;3.20;;
4595;SDS011;2310;49.978;8.742;2024-02-26T02:16:07;5.13;;;2.60;;
4595;SDS011;2310;49.978;8.742;2024-02-26T02:20:09;5.30;;;3.30;;
4595;SDS011;2310;49.978;8.742;2024-02-26T02:24:13;4.97;;;2.63;;
4595;SDS011;2310;49.978;8.742;2024-02-26T02:28:14;4.60;;;2.67;;
4595;SDS011;2310;49.978;8.742;2024-02-26T02:32:16;5.60;;;2.73;;
4595;SDS011;2310;49.978;8.742;2024-02-26T02:36:19;5.43;;;3.10;;
4595;SDS011;2310;49.978;8.742;2024-02-26T02:40:20;4.90;;;2.67;;
4595;SDS011;2310;49.978;8.742;2024-02-26T02:44:22;5.60;;;3.13;;
4595;SDS011;2310;49.978;8.742;2024-02-26T02:48:23;5.40;;;3.10;;
4595;SDS011;2310;49.978;8.742;2024-02-26T02:52:25;7.43;;;3.37;;
4595;SDS011;2310;49.978;8.742;2024-02-26T02:56:26;5.77;;;3.43;;
4595;SDS011;2310;49.978;8.742;2024-02-26T03:00:28;4.80;;;2.90;;
4595;SDS011;2310;49.978;8.742;2024-02-26T03:04:29;10.23;;;3.33;;
4595;SDS011;2310;49.978;8.742;2024-02-26T03:08:30;6.00;;;3.07;;
4595;SDS011;2310;49.978;8.742;2024-02-26T03:12:33;5.60;;;3.30;;
4595;SDS011;2310;49.978;8.742;2024-02-26T03:16:35;5.63;;;2.90;;
4595;SDS011;2310;49.978;8.742;2024-02-26T03:20:36;4.80;;;2.67;;
4595;SDS011;2310;49.978;8.742;2024-02-26T03:24:38;6.50;;;3.20;;
4595;SDS011;2310;49.978;8.742;2024-02-26T03:28:39;5.43;;;3.00;;
4595;SDS011;2310;49.978;8.742;2024-02-26T03:32:41;5.07;;;2.80;;
4595;SDS011;2310;49.978;8.742;2024-02-26T03:36:43;5.17;;;2.87;;
4595;SDS011;2310;49.978;8.742;2024-02-26T03:40:44;5.33;;;2.90;;
4595;SDS011;2310;49.978;8.742;2024-02-26T03:44:45;5.60;;;2.63;;
4595;SDS011;2310;49.978;8.742;2024-02-26T03:48:47;5.10;;;2.60;;
4595;SDS011;2310;49.978;8.742;2024-02-26T03:52:48;6.17;;;3.50;;
4595;SDS011;2310;49.978;8.742;2024-02-26T03:56:50;4.43;;;2.30;;
4595;SDS011;2310;49.978;8.742;2024-02-26T04:00:51;5.37;;;3.43;;
4595;SDS011;2310;49.978;8.742;2024-02-26T04:04:52;5.20;;;3.13;;
4595;SDS011;2310;49.978;8.742;2024-02-26T04:08:54;4.63;;;2.43;;
4595;SDS011;2310;49.978;8.742;2024-02-26T04:12:55;5.10;;;3.37;;
4595;SDS011;2310;49.978;8.742;2024-02-26T04:16:57;5.20;;;3.50;;
4595;SDS011;2310;49.978;8.742;2024-02-26T04:20:58;5.67;;;2.90;;
4595;SDS011;2310;49.978;8.742;2024-02-26T04:25:00;5.53;;;3.07;;
4595;SDS011;2310;49.978;8.742;2024-02-26T04:29:01;6.00;;;3.50;;
4595;SDS011;2310;49.978;8.742;2024-02-26T04:33:02;6.13;;;3.77;;
4595;SDS011;2310;49.978;8.742;2024-02-26T04:37:04;8.07;;;3.97;;
4595;SDS011;2310;49.978;8.742;2024-02-26T04:41:05;5.73;;;3.53;;
4595;SDS011;2310;49.978;8.742;2024-02-26T04:45:07;5.70;;;3.23;;
4595;SDS011;2310;49.978;8.742;2024-02-26T04:49:09;5.87;;;3.70;;
4595;SDS011;2310;49.978;8.742;2024-02-26T04:53:11;5.87;;;3.43;;
4595;SDS011;2310;49.978;8.742;2024-02-26T04:57:12;8.03;;;4.47;;
4595;SDS011;2310;49.978;8.742;2024-02-26T05:01:14;5.53;;;3.70;;
4595;SDS011;2310;49.978;8.742;2024-02-26T05:05:17;5.97;;;3.37;;
4595;SDS011;2310;49.978;8.742;2024-02-26T05:09:19;6.50;;;4.10;;
4595;SDS011;2310;49.978;8.742;2024-02-26T05:13:21;6.40;;;4.33;;
4595;SDS011;2310;49.978;8.742;2024-02-26T05:17:23;5.30;;;3.70;;
4595;SDS011;2310;49.978;8.742;2024-02-26T05:21:26;7.30;;;4.30;;
4595;SDS011;2310;49.978;8.742;2024-02-26T05:25:27;9.40;;;5.73;;
4595;SDS011;2310;49.978;8.742;2024-02-26T05:29:29;8.50;;;4.93;;
4595;SDS011;2310;49.978;8.742;2024-02-26T05:33:30;7.30;;;5.37;;
4595;SDS011;2310;49.978;8.742;2024-02-26T05:37:32;8.37;;;5.07;;
4595;SDS011;2310;49.978;8.742;2024-02-26T05:41:33;7.43;;;4.50;;
4595;SDS011;2310;49.978;8.742;2024-02-26T05:45:34;8.60;;;5.47;;
4595;SDS011;2310;49.978;8.742;2024-02-26T05:49:36;10.30;;;6.00;;
4595;SDS011;2310;49.978;8.742;2024-02-26T05:53:40;9.10;;;5.57;;
4595;SDS011;2310;49.978;8.742;2024-02-26T05:57:42;9.80;;;6.50;;
4595;SDS011;2310;49.978;8.742;2024-02-26T06:01:43;9.30;;;5.97;;
4595;SDS011;2310;49.978;8.742;2024-02-26T06:05:44;7.53;;;5.77;;
4595;SDS011;2310;49.978;8.742;2024-02-26T06:09:47;8.87;;;6.50;;
4595;SDS011;2310;49.978;8.742;2024-02-26T06:13:49;10.07;;;6.13;;
4595;SDS011;2310;49.978;8.742;2024-02-26T06:17:51;10.70;;;6.23;;
4595;SDS011;2310;49.978;8.742;2024-02-26T06:21:54;10.50;;;5.80;;
4595;SDS011;2310;49.978;8.742;2024-02-26T06:25:57;9.00;;;5.83;;
4595;SDS011;2310;49.978;8.742;2024-02-26T06:30:00;8.90;;;6.00;;
4595;SDS011;2310;49.978;8.742;2024-02-26T06:34:02;10.67;;;7.30;;
4595;SDS011;2310;49.978;8.742;2024-02-26T06:38:05;11.57;;;7.00;;
4595;SDS011;2310;49.978;8.742;2024-02-26T06:42:07;8.10;;;5.77;;
4595;SDS011;2310;49.978;8.742;2024-02-26T06:46:10;10.07;;;6.93;;
4595;SDS011;2310;49.978;8.742;2024-02-26T06:50:12;9.87;;;6.70;;
4595;SDS011;2310;49.978;8.742;2024-02-26T06:54:18;8.60;;;5.77;;
4595;SDS011;2310;49.978;8.742;2024-02-26T06:58:21;8.20;;;6.00;;
4595;SDS011;2310;49.978;8.742;2024-02-26T07:02:24;10.60;;;6.70;;
4595;SDS011;2310;49.978;8.742;2024-02-26T07:06:31;10.13;;;5.87;;
4595;SDS011;2310;49.978;8.742;2024-02-26T07:10:31;11.20;;;7.13;;
4595;SDS011;2310;49.978;8.742;2024-02-26T07:14:33;9.60;;;6.77;;
4595;SDS011;2310;49.978;8.742;2024-02-26T07:18:36;10.27;;;7.20;;
4595;SDS011;2310;49.978;8.742;2024-02-26T07:22:39;10.20;;;6.63;;
4595;SDS011;2310;49.978;8.742;2024-02-26T07:26:42;10.63;;;8.73;;
4595;SDS011;2310;49.978;8.742;2024-02-26T07:30:43;10.10;;;7.30;;
4595;SDS011;2310;49.978;8.742;2024-02-26T07:34:45;11.60;;;7.80;;
4595;SDS011;2310;49.978;8.742;2024-02-26T07:38:47;9.80;;;7.13;;
4595;SDS011;2310;49.978;8.742;2024-02-26T07:42:50;9.87;;;7.10;;
4595;SDS011;2310;49.978;8.742;2024-02-26T07:46:52;12.10;;;7.60;;
4595;SDS011;2310;49.978;8.742;2024-02-26T07:50:53;10.90;;;7.23;;
4595;SDS011;2310;49.978;8.742;2024-02-26T07:54:55;9.17;;;7.17;;
4595;SDS011;2310;49.978;8.742;2024-02-26T07:58:56;11.70;;;7.77;;
4595;SDS011;2310;49.978;8.742;2024-02-26T08:02:57;10.20;;;7.50;;
4595;SDS011;2310;49.978;8.742;2024-02-26T08:06:59;12.97;;;8.83;;
4595;SDS011;2310;49.978;8.742;2024-02-26T08:11:01;11.90;;;8.40;;
4595;SDS011;2310;49.978;8.742;2024-02-26T08:15:03;12.53;;;7.67;;
4595;SDS011;2310;49.978;8.742;2024-02-26T08:19:06;8.60;;;6.47;;
4595;SDS011;2310;49.978;8.742;2024-02-26T08:23:07;11.53;;;7.73;;
4595;SDS011;2310;49.978;8.742;2024-02-26T08:27:09;11.23;;;8.10;;
4595;SDS011;2310;49.978;8.742;2024-02-26T08:31:10;9.33;;;7.87;;
4595;SDS011;2310;49.978;8.742;2024-02-26T08:35:11;13.50;;;7.33;;
4595;SDS011;2310;49.978;8.742;2024-02-26T08:39:13;10.30;;;7.00;;
4595;SDS011;2310;49.978;8.742;2024-02-26T08:43:14;10.10;;;6.70;;
4595;SDS011;2310;49.978;8.742;2024-02-26T08:47:16;11.50;;;7.83;;
4595;SDS011;2310;49.978;8.742;2024-02-26T08:51:17;12.50;;;8.63;;
4595;SDS011;2310;49.978;8.742;2024-02-26T08:55:19;10.20;;;8.07;;
4595;SDS011;2310;49.978;8.742;2024-02-26T08:59:20;12.93;;;8.70;;
4595;SDS011;2310;49.978;8.742;2024-02-26T09:03:23;12.20;;;8.60;;
4595;SDS011;2310;49.978;8.742;2024-02-26T09:07:25;10.17;;;8.13;;
4595;SDS011;2310;49.978;8.742;2024-02-26T09:11:26;12.20;;;9.00;;
4595;SDS011;2310;49.978;8.742;2024-02-26T09:15:27;12.83;;;8.13;;
4595;SDS011;2310;49.978;8.742;2024-02-26T09:19:29;14.73;;;8.90;;
4595;SDS011;2310;49.978;8.742;2024-02-26T09:23:31;11.00;;;8.17;;
4595;SDS011;2310;49.978;8.742;2024-02-26T09:27:32;12.00;;;8.50;;
4595;SDS011;2310;49.978;8.742;2024-02-26T09:31:33;13.17;;;8.67;;
4595;SDS011;2310;49.978;8.742;2024-02-26T09:35:35;13.53;;;9.10;;
4595;SDS011;2310;49.978;8.742;2024-02-26T09:39:36;13.33;;;9.60;;
4595;SDS011;2310;49.978;8.742;2024-02-26T09:43:38;12.83;;;8.30;;
4595;SDS011;2310;49.978;8.742;2024-02-26T09:47:42;12.20;;;8.47;;
4595;SDS011;2310;49.978;8.742;2024-02-26T09:51:47;13.40;;;10.47;;
4595;SDS011;2310;49.978;8.742;2024-02-26T09:55:50;15.73;;;8.80;;
4595;SDS011;2310;49.978;8.742;2024-02-26T09:59:53;10.80;;;8.40;;
4595;SDS011;2310;49.978;8.742;2024-02-26T10:03:56;12.37;;;8.77;;
4595;SDS011;2310;49.978;8.742;2024-02-26T10:07:59;13.57;;;9.30;;
4595;SDS011;2310;49.978;8.742;2024-02-26T10:12:02;12.43;;;8.47;;
4595;SDS011;2310;49.978;8.742;2024-02-26T10:16:05;14.40;;;10.17;;
4595;SDS011;2310;49.978;8.742;2024-02-26T10:20:14;13.73;;;9.90;;
4595;SDS011;2310;49.978;8.742;2024-02-26T10:24:17;12.10;;;8.27;;
4595;SDS011;2310;49.978;8.742;2024-02-26T10:28:19;15.33;;;9.80;;
4595;SDS011;2310;49.978;8.742;2024-02-26T10:32:20;14.57;;;9.37;;
4595;SDS011;2310;49.978;8.742;2024-02-26T10:36:22;10.90;;;8.80;;
4595;SDS011;2310;49.978;8.742;2024-02-26T10:40:23;12.50;;;8.13;;
4595;SDS011;2310;49.978;8.742;2024-02-26T10:44:25;11.83;;;9.43;;
4595;SDS011;2310;49.978;8.742;2024-02-26T10:48:26;11.20;;;8.60;;
4595;SDS011;2310;49.978;8.742;2024-02-26T10:52:31;9.30;;;7.17;;
4595;SDS011;2310;49.978;8.742;2024-02-26T10:56:34;9.87;;;7.53;;
4595;SDS011;2310;49.978;8.742;2024-02-26T11:00:38;11.50;;;8.43;;
4595;SDS011;2310;49.978;8.742;2024-02-26T11:04:41;10.90;;;8.03;;
4595;SDS011;2310;49.978;8.742;2024-02-26T11:08:44;9.90;;;8.10;;
4595;SDS011;2310;49.978;8.742;2024-02-26T11:12:48;10.03;;;7.43;;
4595;SDS011;2310;49.978;8.742;2024-02-26T11:16:51;11.03;;;8.00;;
4595;SDS011;2310;49.978;8.742;2024-02-26T11:20:52;24.13;;;8.30;;
4595;SDS011;2310;49.978;8.742;2024-02-26T11:24:57;11.80;;;8.70;;
4595;SDS011;2310;49.978;8.742;2024-02-26T11:29:01;11.67;;;8.60;;
4595;SDS011;2310;49.978;8.742;2024-02-26T11:33:05;10.67;;;8.33;;
4595;SDS011;2310;49.978;8.742;2024-02-26T11:37:14;13.43;;;8.77;;
4595;SDS011;2310;49.978;8.742;2024-02-26T11:41:15;10.67;;;8.30;;
4595;SDS011;2310;49.978;8.742;2024-02-26T11:49:47;12.07;;;9.37;;
4595;SDS011;2310;49.978;8.742;2024-02-26T11:53:50;10.93;;;8.37;;
4595;SDS011;2310;49.978;8.742;2024-02-26T11:57:51;12.97;;;9.17;;
4595;SDS011;2310;49.978;8.742;2024-02-26T12:01:52;13.83;;;9.10;;
4595;SDS011;2310;49.978;8.742;2024-02-26T12:05:54;13.90;;;7.60;;
4595;SDS011;2310;49.978;8.742;2024-02-26T12:10:12;8.50;;;6.37;;
4595;SDS011;2310;49.978;8.742;2024-02-26T12:14:24;11.17;;;7.87;;
4595;SDS011;2310;49.978;8.742;2024-02-26T12:18:25;7.73;;;6.17;;
4595;SDS011;2310;49.978;8.742;2024-02-26T12:22:27;8.70;;;6.63;;
4595;SDS011;2310;49.978;8.742;2024-02-26T12:26:32;9.73;;;7.00;;
4595;SDS011;2310;49.978;8.742;2024-02-26T12:30:34;10.30;;;6.80;;
4595;SDS011;2310;49.978;8.742;2024-02-26T12:34:36;10.50;;;7.80;;
4595;SDS011;2310;49.978;8.742;2024-02-26T12:38:38;9.40;;;7.27;;
4595;SDS011;2310;49.978;8.742;2024-02-26T12:42:40;10.73;;;5.20;;
4595;SDS011;2310;49.978;8.742;2024-02-26T12:46:42;11.03;;;7.90;;
4595;SDS011;2310;49.978;8.742;2024-02-26T12:50:46;9.03;;;7.40;;
4595;SDS011;2310;49.978;8.742;2024-02-26T12:54:52;11.53;;;7.77;;
4595;SDS011;2310;49.978;8.742;2024-02-26T12:58:55;13.37;;;8.23;;
4595;SDS011;2310;49.978;8.742;2024-02-26T13:02:59;11.03;;;7.90;;
4595;SDS011;2310;49.978;8.742;2024-02-26T13:07:05;12.20;;;7.57;;
4595;SDS011;2310;49.978;8.742;2024-02-26T13:11:09;8.83;;;6.57;;
4595;SDS011;2310;49.978;8.742;2024-02-26T13:15:16;10.33;;;6.87;;
4595;SDS011;2310;49.978;8.742;2024-02-26T13:19:22;8.83;;;6.20;;
4595;SDS011;2310;49.978;8.742;2024-02-26T13:23:26;9.30;;;6.97;;
4595;SDS011;2310;49.978;8.742;2024-02-26T13:27:33;9.30;;;7.10;;
4595;SDS011;2310;49.978;8.742;2024-02-26T13:31:39;9.00;;;6.37;;
4595;SDS011;2310;49.978;8.742;2024-02-26T13:35:43;9.60;;;6.90;;
4595;SDS011;2310;49.978;8.742;2024-02-26T13:39:45;8.60;;;6.40;;
4595;SDS011;2310;49.978;8.742;2024-02-26T13:43:47;10.23;;;6.83;;
4595;SDS011;2310;49.978;8.742;2024-02-26T13:47:52;8.03;;;6.00;;
4595;SDS011;2310;49.978;8.742;2024-02-26T13:51:59;11.83;;;5.80;;
4595;SDS011;2310;49.978;8.742;2024-02-26T13:56:02;12.13;;;6.40;;
4595;SDS011;2310;49.978;8.742;2024-02-26T14:00:07;8.70;;;6.23;;
4595;SDS011;2310;49.978;8.742;2024-02-26T14:04:11;7.70;;;5.60;;
4595;SDS011;2310;49.978;8.742;2024-02-26T14:08:14;8.37;;;4.63;;
4595;SDS011;2310;49.978;8.742;2024-02-26T14:12:16;7.73;;;5.50;;
4595;SDS011;2310;49.978;8.742;2024-02-26T14:16:20;8.90;;;6.20;;
4595;SDS011;2310;49.978;8.742;2024-02-26T14:20:22;9.27;;;5.00;;
4595;SDS011;2310;49.978;8.742;2024-02-26T14:24:47;8.57;;;5.00;;
4595;SDS011;2310;49.978;8.742;2024-02-26T14:28:49;8.80;;;5.50;;
4595;SDS011;2310;49.978;8.742;2024-02-26T14:32:53;8.40;;;4.70;;
4595;SDS011;2310;49.978;8.742;2024-02-26T14:36:55;7.30;;;5.40;;
4595;SDS011;2310;49.978;8.742;2024-02-26T14:40:57;8.27;;;5.63;;
4595;SDS011;2310;49.978;8.742;2024-02-26T14:44:58;9.30;;;7.17;;
4595;SDS011;2310;49.978;8.742;2024-02-26T14:49:02;9.90;;;5.13;;
4595;SDS011;2310;49.978;8.742;2024-02-26T14:53:04;7.20;;;5.47;;
4595;SDS011;2310;49.978;8.742;2024-02-26T14:57:08;6.00;;;4.17;;
4595;SDS011;2310;49.978;8.742;2024-02-26T15:01:10;8.17;;;5.30;;
4595;SDS011;2310;49.978;8.742;2024-02-26T15:05:12;6.60;;;4.97;;
4595;SDS011;2310;49.978;8.742;2024-02-26T15:09:14;9.50;;;6.10;;
4595;SDS011;2310;49.978;8.742;2024-02-26T15:13:15;8.20;;;4.53;;
4595;SDS011;2310;49.978;8.742;2024-02-26T15:17:18;8.20;;;5.20;;
4595;SDS011;2310;49.978;8.742;2024-02-26T15:21:21;7.07;;;5.10;;
4595;SDS011;2310;49.978;8.742;2024-02-26T15:25:22;8.30;;;5.90;;
4595;SDS011;2310;49.978;8.742;2024-02-26T15:29:24;12.00;;;7.20;;
4595;SDS011;2310;49.978;8.742;2024-02-26T15:33:25;7.63;;;5.10;;
4595;SDS011;2310;49.978;8.742;2024-02-26T15:37:27;7.87;;;5.43;;
4595;SDS011;2310;49.978;8.742;2024-02-26T15:41:28;7.50;;;4.73;;
4595;SDS011;2310;49.978;8.742;2024-02-26T15:45:30;6.70;;;4.53;;
4595;SDS011;2310;49.978;8.742;2024-02-26T15:49:33;7.23;;;5.40;;
4595;SDS011;2310;49.978;8.742;2024-02-26T15:53:35;7.10;;;5.40;;
4595;SDS011;2310;49.978;8.742;2024-02-26T15:57:37;7.70;;;6.10;;
4595;SDS011;2310;49.978;8.742;2024-02-26T16:01:38;12.40;;;5.90;;
4595;SDS011;2310;49.978;8.742;2024-02-26T16:05:40;7.00;;;5.20;;
4595;SDS011;2310;49.978;8.742;2024-02-26T16:09:41;9.33;;;5.33;;
4595;SDS011;2310;49.978;8.742;2024-02-26T16:13:43;7.50;;;5.10;;
4595;SDS011;2310;49.978;8.742;2024-02-26T16:17:45;7.87;;;6.00;;
4595;SDS011;2310;49.978;8.742;2024-02-26T16:21:49;9.00;;;6.00;;
4595;SDS011;2310;49.978;8.742;2024-02-26T16:25:51;7.00;;;5.20;;
4595;SDS011;2310;49.978;8.742;2024-02-26T16:29:52;6.90;;;5.00;;
4595;SDS011;2310;49.978;8.742;2024-02-26T16:33:54;9.30;;;5.20;;
4595;SDS011;2310;49.978;8.742;2024-02-26T16:37:56;6.83;;;4.67;;
4595;SDS011;2310;49.978;8.742;2024-02-26T16:41:57;9.90;;;6.90;;
4595;SDS011;2310;49.978;8.742;2024-02-26T16:45:58;10.73;;;7.23;;
4595;SDS011;2310;49.978;8.742;2024-02-26T16:50:01;9.40;;;6.10;;
4595;SDS011;2310;49.978;8.742;2024-02-26T16:54:03;8.87;;;6.47;;
4595;SDS011;2310;49.978;8.742;2024-02-26T16:58:09;9.73;;;7.50;;
4595;SDS011;2310;49.978;8.742;2024-02-26T17:02:10;9.27;;;7.20;;
4595;SDS011;2310;49.978;8.742;2024-02-26T17:06:14;7.67;;;6.13;;
4595;SDS011;2310;49.978;8.742;2024-02-26T17:10:17;7.60;;;5.83;;
4595;SDS011;2310;49.978;8.742;2024-02-26T17:14:19;19.80;;;14.40;;
4595;SDS011;2310;49.978;8.742;2024-02-26T17:18:23;20.23;;;17.13;;
4595;SDS011;2310;49.978;8.742;2024-02-26T17:22:25;21.10;;;17.00;;
4595;SDS011;2310;49.978;8.742;2024-02-26T17:26:28;18.40;;;14.97;;
4595;SDS011;2310;49.978;8.742;2024-02-26T17:30:29;19.67;;;16.00;;
4595;SDS011;2310;49.978;8.742;2024-02-26T17:34:31;19.70;;;17.00;;
4595;SDS011;2310;49.978;8.742;2024-02-26T17:38:33;24.17;;;19.47;;
4595;SDS011;2310;49.978;8.742;2024-02-26T17:42:35;22.20;;;16.63;;
4595;SDS011;2310;49.978;8.742;2024-02-26T17:46:37;19.97;;;16.00;;
4595;SDS011;2310;49.978;8.742;2024-02-26T17:50:39;18.20;;;16.20;;
4595;SDS011;2310;49.978;8.742;2024-02-26T17:54:41;13.27;;;9.60;;
4595;SDS011;2310;49.978;8.742;2024-02-26T17:58:43;21.53;;;17.07;;
4595;SDS011;2310;49.978;8.742;2024-02-26T18:02:44;20.23;;;17.90;;
4595;SDS011;2310;49.978;8.742;2024-02-26T18:06:46;15.70;;;13.67;;
4595;SDS011;2310;49.978;8.742;2024-02-26T18:10:47;17.43;;;13.00;;
4595;SDS011;2310;49.978;8.742;2024-02-26T18:14:50;13.37;;;10.60;;
4595;SDS011;2310;49.978;8.742;2024-02-26T18:18:55;25.27;;;22.53;;
4595;SDS011;2310;49.978;8.742;2024-02-26T18:22:56;20.37;;;18.03;;
4595;SDS011;2310;49.978;8.742;2024-02-26T18:26:57;27.07;;;23.57;;
4595;SDS011;2310;49.978;8.742;2024-02-26T18:31:01;14.60;;;11.20;;
4595;SDS011;2310;49.978;8.742;2024-02-26T18:35:02;23.13;;;18.97;;
4595;SDS011;2310;49.978;8.742;2024-02-26T18:39:05;17.77;;;15.90;;
4595;SDS011;2310;49.978;8.742;2024-02-26T18:43:09;15.87;;;14.20;;
4595;SDS011;2310;49.978;8.742;2024-02-26T18:47:10;18.83;;;16.83;;
4595;SDS011;2310;49.978;8.742;2024-02-26T18:51:13;24.50;;;21.80;;
4595;SDS011;2310;49.978;8.742;2024-02-26T18:55:15;25.80;;;21.10;;
4595;SDS011;2310;49.978;8.742;2024-02-26T18:59:17;34.87;;;30.57;;
4595;SDS011;2310;49.978;8.742;2024-02-26T19:03:18;23.47;;;21.00;;
4595;SDS011;2310;49.978;8.742;2024-02-26T19:07:19;22.03;;;19.87;;
4595;SDS011;2310;49.978;8.742;2024-02-26T19:11:21;14.47;;;10.10;;
4595;SDS011;2310;49.978;8.742;2024-02-26T19:15:22;14.80;;;13.23;;
4595;SDS011;2310;49.978;8.742;2024-02-26T19:19:25;15.70;;;12.97;;
4595;SDS011;2310;49.978;8.742;2024-02-26T19:23:26;21.03;;;16.43;;
4595;SDS011;2310;49.978;8.742;2024-02-26T19:27:27;14.80;;;12.37;;
4595;SDS011;2310;49.978;8.742;2024-02-26T19:31:29;15.30;;;10.97;;
4595;SDS011;2310;49.978;8.742;2024-02-26T19:35:30;12.13;;;10.83;;
4595;SDS011;2310;49.978;8.742;2024-02-26T19:39:33;14.43;;;13.03;;
4595;SDS011;2310;49.978;8.742;2024-02-26T19:43:34;14.07;;;12.53;;
4595;SDS011;2310;49.978;8.742;2024-02-26T19:47:36;15.77;;;14.07;;
4595;SDS011;2310;49.978;8.742;2024-02-26T19:51:39;12.23;;;9.83;;
4595;SDS011;2310;49.978;8.742;2024-02-26T19:55:41;10.90;;;8.87;;
4595;SDS011;2310;49.978;8.742;2024-02-26T19:59:44;12.10;;;9.50;;
4595;SDS011;2310;49.978;8.742;2024-02-26T20:03:45;13.17;;;11.40;;
4595;SDS011;2310;49.978;8.742;2024-02-26T20:07:49;11.70;;;10.30;;
4595;SDS011;2310;49.978;8.742;2024-02-26T20:11:52;16.53;;;13.07;;
4595;SDS011;2310;49.978;8.742;2024-02-26T20:15:54;13.10;;;11.53;;
4595;SDS011;2310;49.978;8.742;2024-02-26T20:19:55;11.90;;;9.80;;
4595;SDS011;2310;49.978;8.742;2024-02-26T20:23:58;14.23;;;10.97;;
4595;SDS011;2310;49.978;8.742;2024-02-26T20:28:00;17.63;;;12.30;;
4595;SDS011;2310;49.978;8.742;2024-02-26T20:32:01;13.70;;;9.27;;
4595;SDS011;2310;49.978;8.742;2024-02-26T20:36:02;13.60;;;9.50;;
4595;SDS011;2310;49.978;8.742;2024-02-26T20:40:05;13.57;;;10.20;;
4595;SDS011;2310;49.978;8.742;2024-02-26T20:44:07;12.80;;;10.70;;
4595;SDS011;2310;49.978;8.742;2024-02-26T20:48:09;14.90;;;11.23;;
4595;SDS011;2310;49.978;8.742;2024-02-26T20:52:11;13.63;;;10.27;;
4595;SDS011;2310;49.978;8.742;2024-02-26T20:56:12;13.07;;;9.80;;
4595;SDS011;2310;49.978;8.742;2024-02-26T21:00:14;12.43;;;10.80;;
4595;SDS011;2310;49.978;8.742;2024-02-26T21:04:15;14.13;;;12.10;;
4595;SDS011;2310;49.978;8.742;2024-02-26T21:08:19;13.70;;;10.60;;
4595;SDS011;2310;49.978;8.742;2024-02-26T21:12:23;14.07;;;11.90;;
4595;SDS011;2310;49.978;8.742;2024-02-26T21:16:25;15.97;;;12.50;;
4595;SDS011;2310;49.978;8.742;2024-02-26T21:20:27;17.07;;;12.60;;
4595;SDS011;2310;49.978;8.742;2024-02-26T21:24:30;17.47;;;13.47;;
4595;SDS011;2310;49.978;8.742;2024-02-26T21:28:31;20.00;;;14.10;;
4595;SDS011;2310;49.978;8.742;2024-02-26T21:32:33;22.73;;;15.07;;
4595;SDS011;2310;49.978;8.742;2024-02-26T21:36:35;25.17;;;15.37;;
4595;SDS011;2310;49.978;8.742;2024-02-26T21:40:37;22.50;;;15.33;;
4595;SDS011;2310;49.978;8.742;2024-02-26T21:44:38;25.33;;;16.30;;
4595;SDS011;2310;49.978;8.742;2024-02-26T21:48:40;18.27;;;14.40;;
4595;SDS011;2310;49.978;8.742;2024-02-26T21:52:41;19.10;;;14.77;;
4595;SDS011;2310;49.978;8.742;2024-02-26T21:56:44;18.50;;;13.83;;
4595;SDS011;2310;49.978;8.742;2024-02-26T22:00:46;19.70;;;16.23;;
4595;SDS011;2310;49.978;8.742;2024-02-26T22:04:48;22.23;;;16.40;;
4595;SDS011;2310;49.978;8.742;2024-02-26T22:08:49;22.83;;;17.27;;
4595;SDS011;2310;49.978;8.742;2024-02-26T22:12:50;20.50;;;16.20;;
4595;SDS011;2310;49.978;8.742;2024-02-26T22:16:52;19.70;;;16.30;;
4595;SDS011;2310;49.978;8.742;2024-02-26T22:20:53;22.90;;;16.93;;
4595;SDS011;2310;49.978;8.742;2024-02-26T22:24:54;19.60;;;16.80;;
4595;SDS011;2310;49.978;8.742;2024-02-26T22:28:56;21.00;;;16.13;;
4595;SDS011;2310;49.978;8.742;2024-02-26T22:32:57;21.63;;;16.93;;
4595;SDS011;2310;49.978;8.742;2024-02-26T22:37:00;21.20;;;18.13;;
4595;SDS011;2310;49.978;8.742;2024-02-26T22:41:01;20.87;;;17.60;;
4595;SDS011;2310;49.978;8.742;2024-02-26T22:45:04;23.43;;;18.37;;
4595;SDS011;2310;49.978;8.742;2024-02-26T22:49:07;24.37;;;19.23;;
4595;SDS011;2310;49.978;8.742;2024-02-26T22:53:08;23.27;;;17.33;;
4595;SDS011;2310;49.978;8.742;2024-02-26T22:57:10;24.07;;;20.47;;
4595;SDS011;2310;49.978;8.742;2024-02-26T23:01:11;25.07;;;18.90;;
4595;SDS011;2310;49.978;8.742;2024-02-26T23:05:13;25.57;;;19.97;;
4595;SDS011;2310;49.978;8.742;2024-02-26T23:09:14;26.73;;;20.10;;
4595;SDS011;2310;49.978;8.742;2024-02-26T23:13:16;22.40;;;19.47;;
4595;SDS011;2310;49.978;8.742;2024-02-26T23:17:17;27.17;;;20.33;;
4595;SDS011;2310;49.978;8.742;2024-02-26T23:21:19;27.23;;;21.00;;
4595;SDS011;2310;49.978;8.742;2024-02-26T23:25:22;27.50;;;20.23;;
4595;SDS011;2310;49.978;8.742;2024-02-26T23:29:24;26.97;;;22.90;;
4595;SDS011;2310;49.978;8.742;2024-02-26T23:33:26;27.40;;;21.50;;
4595;SDS011;2310;49.978;8.742;2024-02-26T23:37:29;27.30;;;20.03;;
4595;SDS011;2310;49.978;8.742;2024-02-26T23:41:32;27.53;;;22.43;;
4595;SDS011;2310;49.978;8.742;2024-02-26T23:45:34;31.57;;;22.40;;
4595;SDS011;2310;49.978;8.742;2024-02-26T23:49:35;29.97;;;20.77;;
4595;SDS011;2310;49.978;8.742;2024-02-26T23:53:36;29.40;;;23.17;;
4595;SDS011;2310;49.978;8.742;2024-02-26T23:57:38;32.00;;;24.20;;
